Pagrindinis puslapis
METAR-TAF:

METAR-TAF

Oro uostai :

Vardė, Norvegija

platuma: 70-21N, ilguma: 031-03E, Aukštis: 12 m

Dabartinis oras

Ataskaita buvo paskelbta 3 valandos ir 34 minutes, ne 10:50 UTC
Vėjas 18 kt iš Pietų
Temperatūra 8°C
Drėgmė 66%
Slėgis 1003 hPa
Matomumas 10 km arba daugiau
nėra debesų žemiau 1500 m ir nėra kamuolinių lietaus debesų

METAR: ENSS 231050Z 18018KT CAVOK 08/02 Q1003 RMK WIND 500FT 19021KT

Laikas: 16:24 (14:24 UTC)


TAF: trūkstamas

Orai ataskaitas ir orų prognozės (METAR, TAF).

turimą stotys yra geltonos ir raudonos taškus žemėlapyje.

Perkelti pele per norėdami pamatyti stoties vardą.

Tada spustelėkite, norėdami matyti oro stebėjimo ir prognozės.

Norėdami pakeisti žemėlapį: spustelėkite ant žalios mygtukų su juodo kryžiaus žemyn,; žalią mygtuką su brūkšneliu, jei norite nutolinti; arba žalių rodyklių gretimoms žemėlapius.


METAR-TAF: